createdAt,value
2023-07-19T00:01:06.736Z,1.20
2023-07-19T00:03:34.179Z,0.98
2023-07-19T00:06:02.414Z,0.82
2023-07-19T00:08:31.737Z,0.88
2023-07-19T00:10:59.072Z,1.10
2023-07-19T00:13:26.148Z,0.80
2023-07-19T00:15:53.112Z,0.95
2023-07-19T00:18:20.104Z,1.15
2023-07-19T00:20:47.063Z,1.23
2023-07-19T00:23:14.162Z,1.38
2023-07-19T00:25:41.200Z,1.17
2023-07-19T00:28:08.222Z,1.02
2023-07-19T00:30:35.279Z,1.33
2023-07-19T00:33:02.281Z,1.10
2023-07-19T00:35:29.453Z,1.00
2023-07-19T00:37:56.436Z,1.10
2023-07-19T00:40:23.402Z,1.10
2023-07-19T00:42:57.366Z,1.30
2023-07-19T00:45:26.734Z,1.10
2023-07-19T00:47:55.784Z,1.00
2023-07-19T00:50:23.672Z,1.08
2023-07-19T00:52:53.054Z,1.30
2023-07-19T00:55:20.670Z,1.20
2023-07-19T00:57:47.713Z,1.10
2023-07-19T01:00:14.944Z,1.02
2023-07-19T01:02:42.684Z,1.50
2023-07-19T01:05:09.832Z,1.08
2023-07-19T01:07:38.801Z,1.38
2023-07-19T01:10:06.526Z,0.93
2023-07-19T01:12:33.563Z,1.10
2023-07-19T01:15:00.722Z,1.40
2023-07-19T01:17:27.854Z,1.42
2023-07-19T01:19:54.907Z,1.38
2023-07-19T01:22:21.928Z,1.10
2023-07-19T01:24:48.902Z,1.30
2023-07-19T01:27:22.782Z,1.30
2023-07-19T01:29:52.951Z,1.23
2023-07-19T01:32:20.026Z,1.10
2023-07-19T01:34:47.031Z,1.17
2023-07-19T01:37:14.045Z,1.15
2023-07-19T01:39:41.232Z,1.10
2023-07-19T01:42:08.844Z,1.17
2023-07-19T01:44:35.995Z,1.25
2023-07-19T01:47:02.981Z,1.15
2023-07-19T01:49:30.136Z,1.42
2023-07-19T01:51:57.092Z,1.15
2023-07-19T01:54:24.111Z,1.10
2023-07-19T01:56:51.228Z,1.33
2023-07-19T01:59:18.175Z,1.15
2023-07-19T02:01:45.385Z,1.23
2023-07-19T02:04:12.423Z,1.40
2023-07-19T02:06:39.414Z,1.20
2023-07-19T02:09:06.327Z,1.85
2023-07-19T02:11:33.507Z,1.13
2023-07-19T02:14:00.488Z,1.00
2023-07-19T02:16:27.476Z,1.30
2023-07-19T02:18:54.395Z,1.30
2023-07-19T02:21:21.608Z,1.20
2023-07-19T02:23:48.877Z,1.10
2023-07-19T02:26:15.963Z,1.20
2023-07-19T02:28:43.329Z,1.40
2023-07-19T02:31:10.476Z,1.20
2023-07-19T02:33:38.381Z,1.70
2023-07-19T02:36:05.524Z,1.40
2023-07-19T02:38:32.713Z,1.35
2023-07-19T02:41:04.103Z,1.40
2023-07-19T02:43:31.541Z,1.23
2023-07-19T02:45:58.450Z,1.55
2023-07-19T02:48:25.520Z,1.60
2023-07-19T02:50:52.543Z,1.30
2023-07-19T02:53:19.536Z,1.33
2023-07-19T02:55:49.349Z,1.48
2023-07-19T02:58:16.583Z,1.40
2023-07-19T03:00:44.823Z,1.25
2023-07-19T03:03:12.624Z,1.50
2023-07-19T03:05:44.669Z,1.30
2023-07-19T03:08:12.619Z,1.52
2023-07-19T03:10:40.528Z,1.30
2023-07-19T03:13:08.599Z,1.30
2023-07-19T03:15:36.356Z,1.40
2023-07-19T03:18:04.665Z,1.25
2023-07-19T03:20:32.425Z,1.15
2023-07-19T03:23:00.792Z,1.10
2023-07-19T03:25:29.832Z,1.17
2023-07-19T03:27:58.128Z,1.15
2023-07-19T03:30:25.622Z,1.52
2023-07-19T03:32:53.294Z,1.23
2023-07-19T03:35:22.071Z,1.35
2023-07-19T03:37:49.526Z,1.27
2023-07-19T03:40:16.738Z,1.55
2023-07-19T03:42:43.812Z,0.98
2023-07-19T03:45:11.247Z,1.27
2023-07-19T03:47:38.496Z,1.50
2023-07-19T03:50:06.133Z,1.60
2023-07-19T03:52:33.624Z,1.58
2023-07-19T03:55:00.874Z,1.20
2023-07-19T03:57:27.913Z,1.40
2023-07-19T03:59:55.505Z,1.52
2023-07-19T04:02:23.620Z,1.38
2023-07-19T04:04:51.129Z,1.67
2023-07-19T04:07:18.199Z,1.20
2023-07-19T04:09:45.555Z,1.50
2023-07-19T04:12:12.846Z,1.52
2023-07-19T04:14:40.057Z,1.50
2023-07-19T04:17:07.266Z,1.20
2023-07-19T04:19:34.556Z,1.60
2023-07-19T04:22:01.588Z,1.45
2023-07-19T04:24:28.715Z,1.35
2023-07-19T04:26:55.748Z,1.33
2023-07-19T04:29:24.038Z,1.20
2023-07-19T04:31:51.005Z,1.73
2023-07-19T04:34:18.001Z,1.77
2023-07-19T04:36:46.275Z,1.80
2023-07-19T04:39:13.247Z,1.60
2023-07-19T04:41:40.351Z,1.70
2023-07-19T04:44:07.360Z,1.98
2023-07-19T04:46:34.531Z,1.60
2023-07-19T04:49:01.550Z,1.35
2023-07-19T04:51:28.523Z,1.50
2023-07-19T04:53:55.533Z,1.40
2023-07-19T04:56:22.509Z,1.40
2023-07-19T04:58:49.451Z,1.67
2023-07-19T05:01:16.433Z,1.17
2023-07-19T05:03:43.565Z,1.42
2023-07-19T05:06:10.556Z,1.30
2023-07-19T05:08:38.765Z,1.40
2023-07-19T05:11:06.187Z,1.40
2023-07-19T05:13:33.114Z,1.35
2023-07-19T05:16:01.798Z,1.48
2023-07-19T05:18:28.828Z,1.52
2023-07-19T05:20:55.836Z,1.52
2023-07-19T05:23:22.787Z,1.67
2023-07-19T05:25:49.864Z,1.40
2023-07-19T05:28:18.858Z,1.33
2023-07-19T05:30:45.794Z,1.42
2023-07-19T05:33:12.887Z,1.45
2023-07-19T05:35:39.870Z,1.00
2023-07-19T05:38:06.841Z,1.58
2023-07-19T05:40:33.986Z,1.20
2023-07-19T05:43:00.918Z,1.60
2023-07-19T05:45:27.903Z,1.48
2023-07-19T05:47:55.547Z,1.52
2023-07-19T05:50:22.524Z,1.40
2023-07-19T05:52:49.482Z,1.48
2023-07-19T05:55:16.600Z,1.45
2023-07-19T05:57:43.624Z,1.27
2023-07-19T06:00:25.908Z,1.27
2023-07-19T06:02:55.498Z,1.25
2023-07-19T06:05:25.580Z,1.45
2023-07-19T06:07:53.537Z,1.58
2023-07-19T06:10:20.584Z,1.38
2023-07-19T06:12:48.503Z,1.50
2023-07-19T06:15:15.973Z,1.75
2023-07-19T06:17:44.418Z,1.60
2023-07-19T06:20:12.076Z,1.60
2023-07-19T06:22:39.425Z,1.60
2023-07-19T06:25:07.313Z,1.50
2023-07-19T06:27:34.515Z,1.27
2023-07-19T06:30:02.169Z,1.27
2023-07-19T06:32:29.110Z,1.40
2023-07-19T06:34:56.077Z,1.88
2023-07-19T06:37:23.090Z,1.55
2023-07-19T06:39:50.109Z,1.52
2023-07-19T06:42:17.090Z,1.30
2023-07-19T06:44:44.068Z,1.42
2023-07-19T06:47:11.248Z,1.70
2023-07-19T06:49:38.575Z,1.55
2023-07-19T06:52:06.450Z,1.50
2023-07-19T06:54:33.640Z,1.35
2023-07-19T06:57:00.581Z,1.33
2023-07-19T06:59:29.284Z,1.08
2023-07-19T07:01:56.376Z,1.10
2023-07-19T07:04:23.396Z,1.52
2023-07-19T07:06:50.333Z,1.13
2023-07-19T07:09:17.356Z,1.10
2023-07-19T07:11:44.311Z,1.02
2023-07-19T07:14:11.741Z,1.30
2023-07-19T07:16:38.768Z,1.38
2023-07-19T07:19:06.078Z,1.15
2023-07-19T07:21:33.054Z,1.58
2023-07-19T07:24:00.267Z,1.42
2023-07-19T07:26:27.262Z,1.15
2023-07-19T07:28:54.280Z,1.38
2023-07-19T07:31:21.471Z,1.40
2023-07-19T07:33:48.689Z,1.27
2023-07-19T07:36:15.673Z,1.40
2023-07-19T07:38:42.618Z,1.40
2023-07-19T07:41:12.754Z,1.23
2023-07-19T07:43:39.995Z,1.63
2023-07-19T07:46:07.069Z,1.50
2023-07-19T07:48:34.096Z,1.70
2023-07-19T07:51:01.260Z,2.60
2023-07-19T07:53:28.347Z,2.60
2023-07-19T07:55:55.311Z,2.22
2023-07-19T07:58:22.573Z,2.30
2023-07-19T08:00:49.576Z,2.50
2023-07-19T08:03:16.711Z,1.98
2023-07-19T08:05:43.760Z,2.20
2023-07-19T08:08:10.766Z,2.20
2023-07-19T08:10:41.493Z,1.90
2023-07-19T08:13:12.682Z,1.92
2023-07-19T08:15:39.709Z,2.38
2023-07-19T08:18:06.720Z,2.28
2023-07-19T08:20:33.769Z,2.00
2023-07-19T08:23:03.277Z,2.08
2023-07-19T08:25:30.905Z,2.40
2023-07-19T08:27:58.190Z,3.10
2023-07-19T08:30:25.585Z,2.50
2023-07-19T08:32:53.294Z,2.38
2023-07-19T08:35:20.465Z,2.65
2023-07-19T08:37:48.051Z,2.13
2023-07-19T08:40:17.129Z,2.38
2023-07-19T08:42:45.128Z,3.00
2023-07-19T08:45:13.513Z,3.03
2023-07-19T08:47:41.930Z,3.10
2023-07-19T08:50:12.445Z,3.28
2023-07-19T08:52:39.821Z,3.28
2023-07-19T08:55:08.124Z,3.25
2023-07-19T08:57:45.464Z,3.20
2023-07-19T09:00:16.645Z,4.13
2023-07-19T09:02:43.637Z,3.25
2023-07-19T09:05:12.961Z,3.22
2023-07-19T09:07:41.825Z,3.20
2023-07-19T09:10:10.852Z,2.83
2023-07-19T09:12:42.611Z,2.80
2023-07-19T09:15:11.531Z,2.70
2023-07-19T09:17:43.812Z,2.78
2023-07-19T09:20:11.888Z,3.22
2023-07-19T09:22:39.949Z,3.10
2023-07-19T09:25:10.480Z,3.25
2023-07-19T09:27:38.518Z,3.17
2023-07-19T09:30:13.705Z,3.75
2023-07-19T09:32:41.331Z,3.25
2023-07-19T09:35:09.561Z,3.47
2023-07-19T09:37:36.549Z,3.40
2023-07-19T09:40:05.921Z,3.58
2023-07-19T09:42:36.494Z,4.43
2023-07-19T09:45:07.532Z,4.13
2023-07-19T09:47:38.709Z,3.97
2023-07-19T09:50:08.036Z,4.05
2023-07-19T09:52:39.189Z,4.28
2023-07-19T09:55:09.491Z,3.70
2023-07-19T09:57:40.920Z,4.68
2023-07-19T10:00:09.655Z,3.83
2023-07-19T10:02:36.886Z,3.80
2023-07-19T10:05:09.622Z,4.13
2023-07-19T10:07:50.192Z,3.75
2023-07-19T10:10:21.087Z,3.92
2023-07-19T10:12:49.757Z,3.97
2023-07-19T10:15:22.938Z,4.03
2023-07-19T10:18:00.228Z,3.60
2023-07-19T10:20:31.114Z,4.10
2023-07-19T10:23:02.776Z,4.32
2023-07-19T10:25:52.744Z,4.20
2023-07-19T10:28:33.173Z,3.38
2023-07-19T10:31:17.305Z,3.45
2023-07-19T10:33:49.651Z,3.60
2023-07-19T10:36:16.940Z,3.00
2023-07-19T10:38:44.167Z,2.63
2023-07-19T10:41:12.756Z,2.85
2023-07-19T10:46:10.633Z,3.15
2023-07-19T10:48:41.141Z,2.63
2023-07-19T10:51:10.167Z,3.00
2023-07-19T10:54:00.483Z,2.72
2023-07-19T10:56:29.143Z,2.33
2023-07-19T10:59:02.654Z,2.00
2023-07-19T11:01:32.335Z,1.83
2023-07-19T11:04:04.365Z,1.98
2023-07-19T11:06:32.408Z,1.80
2023-07-19T11:09:10.143Z,1.90
2023-07-19T11:11:38.730Z,1.50
2023-07-19T11:14:06.037Z,1.45
2023-07-19T11:16:33.239Z,1.00
2023-07-19T11:19:00.546Z,1.90
2023-07-19T11:21:28.688Z,1.38
2023-07-19T11:23:56.704Z,1.55
2023-07-19T11:26:23.846Z,1.63
2023-07-19T11:28:58.903Z,1.30
2023-07-19T11:31:41.937Z,1.45
2023-07-19T11:34:14.938Z,1.52
2023-07-19T11:36:47.078Z,1.60
2023-07-19T11:39:26.753Z,1.98
2023-07-19T11:41:53.687Z,1.40
2023-07-19T11:44:23.969Z,1.10
2023-07-19T11:46:53.035Z,1.40
2023-07-19T11:49:20.303Z,1.48
2023-07-19T11:51:47.742Z,1.70
2023-07-19T11:54:16.811Z,1.33
2023-07-19T11:56:44.071Z,1.50
2023-07-19T11:59:11.087Z,1.40
2023-07-19T12:01:38.420Z,1.10
2023-07-19T12:04:05.498Z,1.27
2023-07-19T12:06:32.869Z,1.50
2023-07-19T12:09:00.569Z,1.35
2023-07-19T12:11:27.777Z,1.50
2023-07-19T12:13:58.374Z,1.52
2023-07-19T12:16:26.450Z,1.52
2023-07-19T12:18:53.536Z,1.30
2023-07-19T12:21:20.869Z,1.20
2023-07-19T12:23:58.239Z,1.10
2023-07-19T12:28:57.794Z,1.15
2023-07-19T12:31:25.280Z,1.17
2023-07-19T12:33:52.280Z,1.33
2023-07-19T12:36:19.696Z,1.20
2023-07-19T12:38:47.190Z,0.90
2023-07-19T12:41:14.169Z,1.60
2023-07-19T12:43:42.129Z,1.33
2023-07-19T12:46:09.180Z,1.40
2023-07-19T12:48:36.802Z,1.27
2023-07-19T12:51:05.489Z,1.17
2023-07-19T12:53:32.544Z,1.35
2023-07-19T12:55:59.539Z,1.00
2023-07-19T12:58:26.659Z,1.33
2023-07-19T13:00:53.685Z,0.90
2023-07-19T13:03:21.814Z,0.80
2023-07-19T13:05:50.054Z,1.00
2023-07-19T13:08:17.154Z,0.98
2023-07-19T13:10:44.473Z,0.90
2023-07-19T13:13:11.678Z,1.00
2023-07-19T13:15:39.127Z,1.10
2023-07-19T13:18:06.504Z,1.10
2023-07-19T13:20:33.819Z,1.05
2023-07-19T13:23:03.102Z,0.90
2023-07-19T13:25:30.308Z,1.15
2023-07-19T13:27:57.477Z,0.80
2023-07-19T13:30:25.319Z,0.95
2023-07-19T13:32:52.592Z,1.15
2023-07-19T13:40:20.789Z,1.02
2023-07-19T13:42:47.900Z,1.17
2023-07-19T13:45:14.840Z,1.00
2023-07-19T13:47:43.740Z,0.80
2023-07-19T13:50:11.164Z,0.93
2023-07-19T13:52:38.400Z,1.48
2023-07-19T13:55:06.461Z,1.00
2023-07-19T13:57:33.640Z,1.00
2023-07-19T14:00:00.643Z,1.15
2023-07-19T14:02:30.992Z,1.00
2023-07-19T14:04:58.320Z,1.05
2023-07-19T14:07:25.386Z,0.88
2023-07-19T14:09:52.567Z,0.88
2023-07-19T14:12:19.967Z,0.80
2023-07-19T14:14:47.198Z,0.80
2023-07-19T14:17:14.321Z,0.70
2023-07-19T14:19:41.439Z,0.80
2023-07-19T14:22:08.719Z,0.88
2023-07-19T14:24:37.358Z,0.75
2023-07-19T14:27:05.979Z,1.00
2023-07-19T14:29:33.025Z,0.70
2023-07-19T14:32:00.000Z,1.00
2023-07-19T14:34:27.108Z,1.10
2023-07-19T14:36:54.274Z,1.02
2023-07-19T14:39:21.750Z,0.60
2023-07-19T14:41:57.972Z,0.73
2023-07-19T14:44:26.612Z,0.80
2023-07-19T14:46:53.760Z,0.73
2023-07-19T14:49:20.775Z,0.80
2023-07-19T14:51:48.980Z,0.95
2023-07-19T14:54:15.929Z,0.85
2023-07-19T14:56:44.332Z,0.68
2023-07-19T14:59:11.473Z,1.17
2023-07-19T15:01:39.183Z,1.02
2023-07-19T15:04:06.573Z,0.80
2023-07-19T15:06:33.939Z,0.80
2023-07-19T15:09:01.951Z,0.60
2023-07-19T15:11:29.485Z,0.70
2023-07-19T15:13:56.782Z,0.60
2023-07-19T15:16:23.996Z,0.80
2023-07-19T15:18:51.419Z,0.70
2023-07-19T15:21:18.748Z,0.80
2023-07-19T15:26:32.294Z,0.90
2023-07-19T15:29:01.582Z,1.20
2023-07-19T15:31:30.168Z,0.90
2023-07-19T15:33:57.328Z,0.80
2023-07-19T15:36:24.725Z,0.50
2023-07-19T15:38:56.257Z,0.85
2023-07-19T15:41:25.240Z,0.75
2023-07-19T15:43:52.624Z,0.65
2023-07-19T15:46:19.654Z,0.80
2023-07-19T15:48:47.628Z,1.08
2023-07-19T15:51:14.876Z,0.70
2023-07-19T15:53:42.116Z,0.82
2023-07-19T15:56:10.505Z,0.60
2023-07-19T15:58:37.647Z,0.40
2023-07-19T16:01:08.840Z,0.50
2023-07-19T16:03:36.862Z,0.70
2023-07-19T16:06:04.481Z,0.47
2023-07-19T16:08:32.564Z,0.63
2023-07-19T16:11:00.154Z,0.55
2023-07-19T16:13:27.164Z,0.60
2023-07-19T16:15:54.457Z,0.55
2023-07-19T16:18:22.409Z,0.43
2023-07-19T16:20:49.568Z,0.60
2023-07-19T16:23:16.730Z,0.40
2023-07-19T16:25:43.798Z,0.50
2023-07-19T16:28:10.922Z,0.60
2023-07-19T16:30:37.896Z,0.70
2023-07-19T16:33:05.011Z,0.50
2023-07-19T16:35:32.394Z,0.60
2023-07-19T16:37:59.585Z,0.80
2023-07-19T16:40:29.021Z,0.40
2023-07-19T16:42:56.082Z,0.60
2023-07-19T16:45:25.328Z,0.60
2023-07-19T16:47:58.208Z,0.60
2023-07-19T16:50:26.494Z,0.60
2023-07-19T16:53:03.718Z,0.60
2023-07-19T16:55:31.085Z,0.70
2023-07-19T16:58:00.030Z,0.60
2023-07-19T17:00:27.267Z,0.68
2023-07-19T17:02:54.265Z,0.98
2023-07-19T17:05:21.607Z,0.50
2023-07-19T17:07:48.534Z,0.60
2023-07-19T17:10:16.218Z,0.75
2023-07-19T17:12:43.585Z,0.60
2023-07-19T17:15:11.558Z,0.80
2023-07-19T17:17:38.702Z,0.55
2023-07-19T17:20:07.017Z,0.60
2023-07-19T17:22:34.199Z,0.60
2023-07-19T17:25:03.316Z,0.52
2023-07-19T17:27:30.760Z,0.98
2023-07-19T17:29:57.691Z,1.30
2023-07-19T17:32:24.780Z,0.40
2023-07-19T17:34:51.792Z,0.50
2023-07-19T17:37:18.749Z,0.90
2023-07-19T17:39:45.888Z,0.60
2023-07-19T17:42:12.862Z,0.60
2023-07-19T17:44:39.784Z,0.60
2023-07-19T17:47:07.002Z,0.70
2023-07-19T17:49:34.300Z,0.57
2023-07-19T17:52:01.308Z,0.77
2023-07-19T17:54:28.507Z,0.55
2023-07-19T17:56:55.697Z,1.20
2023-07-19T17:59:22.869Z,1.00
2023-07-19T18:01:49.835Z,0.60
2023-07-19T18:04:16.999Z,0.60
2023-07-19T18:06:44.196Z,0.70
2023-07-19T18:09:11.308Z,0.70
2023-07-19T18:11:38.360Z,0.60
2023-07-19T18:14:05.432Z,0.52
2023-07-19T18:16:32.649Z,0.68
2023-07-19T18:18:59.626Z,0.35
2023-07-19T18:21:26.691Z,0.43
2023-07-19T18:23:54.234Z,0.50
2023-07-19T18:26:21.370Z,0.40
2023-07-19T18:28:48.591Z,0.28
2023-07-19T18:31:15.747Z,0.60
2023-07-19T18:33:43.125Z,0.70
2023-07-19T18:36:10.259Z,0.50
2023-07-19T18:38:39.054Z,0.60
2023-07-19T18:41:06.871Z,0.45
2023-07-19T18:43:34.222Z,0.68
2023-07-19T18:46:01.758Z,0.68
2023-07-19T18:48:28.963Z,0.60
2023-07-19T18:50:56.694Z,0.50
2023-07-19T18:53:23.767Z,0.80
2023-07-19T18:55:50.993Z,0.60
2023-07-19T18:58:19.330Z,0.73
2023-07-19T19:00:49.350Z,0.57
2023-07-19T19:03:16.588Z,0.75
2023-07-19T19:05:47.561Z,0.60
2023-07-19T19:08:20.243Z,0.70
2023-07-19T19:10:49.421Z,0.77
2023-07-19T19:13:16.694Z,0.65
2023-07-19T19:15:44.595Z,0.70
2023-07-19T19:18:12.392Z,0.82
2023-07-19T19:20:39.652Z,0.70
2023-07-19T19:23:08.511Z,0.90
2023-07-19T19:25:35.768Z,1.08
2023-07-19T19:28:03.844Z,1.00
2023-07-19T19:30:33.959Z,0.65
2023-07-19T19:33:01.318Z,0.80
2023-07-19T19:35:29.021Z,0.70
2023-07-19T19:37:56.074Z,0.77
2023-07-19T19:40:23.023Z,0.80
2023-07-19T19:42:50.062Z,0.80
2023-07-19T19:45:17.154Z,0.70
2023-07-19T19:47:44.654Z,0.57
2023-07-19T19:50:12.766Z,0.77
2023-07-19T19:52:40.976Z,0.80
2023-07-19T19:55:10.151Z,0.80
2023-07-19T19:57:38.193Z,0.80
2023-07-19T20:00:05.762Z,0.65
2023-07-19T20:02:37.457Z,0.80
2023-07-19T20:05:05.214Z,0.95
2023-07-19T20:07:32.854Z,0.90
2023-07-19T20:10:02.752Z,0.82
2023-07-19T20:12:45.928Z,0.88
2023-07-19T20:15:13.879Z,0.80
2023-07-19T20:17:41.404Z,1.00
2023-07-19T20:20:19.876Z,0.95
2023-07-19T20:22:50.468Z,0.90
2023-07-19T20:25:27.445Z,1.00
2023-07-19T20:28:04.753Z,0.82
2023-07-19T20:30:32.025Z,1.17
2023-07-19T20:32:59.229Z,0.88
2023-07-19T20:43:13.053Z,0.93
2023-07-19T20:45:40.230Z,1.40
2023-07-19T20:48:07.237Z,1.10
2023-07-19T20:50:34.317Z,1.20
2023-07-19T20:53:01.233Z,1.30
2023-07-19T20:55:28.190Z,0.98
2023-07-19T20:57:55.318Z,0.98
2023-07-19T21:00:22.471Z,1.27
2023-07-19T21:02:49.741Z,1.00
2023-07-19T21:05:17.050Z,1.45
2023-07-19T21:07:43.944Z,1.13
2023-07-19T21:10:11.234Z,1.08
2023-07-19T21:12:38.253Z,1.10
2023-07-19T21:15:05.725Z,1.52
2023-07-19T21:17:32.750Z,0.90
2023-07-19T21:19:59.722Z,1.30
2023-07-19T21:22:26.981Z,1.10
2023-07-19T21:27:25.128Z,0.90
2023-07-19T21:29:52.078Z,1.38
2023-07-19T21:32:21.016Z,1.17
2023-07-19T21:34:49.548Z,1.10
2023-07-19T21:37:19.158Z,1.10
2023-07-19T21:39:47.954Z,1.45
2023-07-19T21:42:14.915Z,1.40
2023-07-19T21:44:43.089Z,1.58
2023-07-19T21:47:10.160Z,1.20
2023-07-19T21:49:37.161Z,1.25
2023-07-19T21:52:06.033Z,1.52
2023-07-19T21:54:33.294Z,1.70
2023-07-19T21:57:00.564Z,1.20
2023-07-19T21:59:27.530Z,1.30
2023-07-19T22:01:54.455Z,1.48
2023-07-19T22:04:21.478Z,1.00
2023-07-19T22:06:48.524Z,1.10
2023-07-19T22:09:15.769Z,1.30
2023-07-19T22:11:42.820Z,1.95
2023-07-19T22:14:11.069Z,1.10
2023-07-19T22:16:39.596Z,1.25
2023-07-19T22:19:07.493Z,1.20
2023-07-19T22:21:36.006Z,1.30
2023-07-19T22:24:02.986Z,1.20
2023-07-19T22:26:29.953Z,1.20
2023-07-19T22:29:01.640Z,1.20
2023-07-19T22:31:29.506Z,0.98
2023-07-19T22:33:56.598Z,1.10
2023-07-19T22:36:23.998Z,1.30
2023-07-19T22:38:51.399Z,1.30
2023-07-19T22:41:18.399Z,0.93
2023-07-19T22:43:45.408Z,1.10
2023-07-19T22:46:12.767Z,1.10
2023-07-19T22:48:39.977Z,1.48
2023-07-19T22:51:06.986Z,1.45
2023-07-19T22:53:34.231Z,1.40
2023-07-19T22:56:02.840Z,2.00
2023-07-19T22:58:31.247Z,1.58
2023-07-19T23:00:59.037Z,1.60
2023-07-19T23:03:26.356Z,2.08
2023-07-19T23:05:53.935Z,1.95
2023-07-19T23:08:21.116Z,2.38
2023-07-19T23:10:48.351Z,1.95
2023-07-19T23:13:15.427Z,2.28
2023-07-19T23:15:43.089Z,2.45
2023-07-19T23:18:10.164Z,2.22
2023-07-19T23:20:38.664Z,2.38
2023-07-19T23:23:05.746Z,2.20
2023-07-19T23:25:32.687Z,2.45
2023-07-19T23:28:02.003Z,2.72
2023-07-19T23:30:29.512Z,2.33
2023-07-19T23:32:58.924Z,2.90
2023-07-19T23:35:26.013Z,2.45
2023-07-19T23:37:53.694Z,2.53
2023-07-19T23:40:20.660Z,2.90
2023-07-19T23:42:47.604Z,2.50
2023-07-19T23:45:14.836Z,2.60
2023-07-19T23:47:41.806Z,2.50
2023-07-19T23:50:09.278Z,3.47
2023-07-19T23:52:36.262Z,2.35
2023-07-19T23:55:05.029Z,2.75
2023-07-19T23:57:32.123Z,2.75
2023-07-19T23:59:59.293Z,2.90
